createdAt,value
2019-02-25T00:00:56.861Z,20.17
2019-02-25T00:02:10.789Z,21.77
2019-02-25T00:03:16.095Z,19.00
2019-02-25T00:04:21.450Z,22.37
2019-02-25T00:05:26.680Z,19.73
2019-02-25T00:06:32.061Z,22.03
2019-02-25T00:07:37.348Z,21.83
2019-02-25T00:08:42.776Z,20.50
2019-02-25T00:09:47.966Z,23.43
2019-02-25T00:10:53.307Z,21.63
2019-02-25T00:11:58.664Z,18.47
2019-02-25T00:13:03.984Z,24.10
2019-02-25T00:14:09.410Z,22.47
2019-02-25T00:15:14.658Z,21.53
2019-02-25T00:16:20.094Z,23.23
2019-02-25T00:17:26.426Z,24.50
2019-02-25T00:18:31.620Z,21.70
2019-02-25T00:19:36.903Z,21.47
2019-02-25T00:20:42.199Z,18.57
2019-02-25T00:21:47.541Z,19.90
2019-02-25T00:22:52.836Z,19.37
2019-02-25T00:23:58.186Z,23.30
2019-02-25T00:25:03.546Z,18.53
2019-02-25T00:26:09.919Z,18.30
2019-02-25T00:27:15.115Z,19.63
2019-02-25T00:28:20.484Z,22.03
2019-02-25T00:29:25.761Z,17.47
2019-02-25T00:30:31.113Z,20.10
2019-02-25T00:31:36.396Z,22.23
2019-02-25T00:32:41.714Z,21.07
2019-02-25T00:33:46.976Z,19.87
2019-02-25T00:34:52.264Z,18.87
2019-02-25T00:35:57.668Z,18.97
2019-02-25T00:37:03.058Z,18.37
2019-02-25T00:38:09.228Z,20.43
2019-02-25T00:39:14.487Z,20.33
2019-02-25T00:40:19.951Z,21.97
2019-02-25T00:41:25.208Z,20.13
2019-02-25T00:42:30.404Z,19.23
2019-02-25T00:43:36.153Z,23.50
2019-02-25T00:44:41.374Z,22.83
2019-02-25T00:45:46.581Z,20.43
2019-02-25T00:46:51.970Z,18.83
2019-02-25T00:47:57.273Z,21.97
2019-02-25T00:49:02.613Z,22.70
2019-02-25T00:50:09.981Z,23.50
2019-02-25T00:51:15.341Z,19.30
2019-02-25T00:52:20.635Z,21.67
2019-02-25T00:53:25.952Z,20.20
2019-02-25T00:54:31.232Z,20.90
2019-02-25T00:55:36.539Z,21.50
2019-02-25T00:56:41.826Z,24.20
2019-02-25T00:57:47.178Z,19.63
2019-02-25T00:58:52.476Z,23.63
2019-02-25T00:59:57.742Z,22.60
2019-02-25T01:01:03.843Z,19.47
2019-02-25T01:02:10.063Z,23.97
2019-02-25T01:03:15.232Z,23.33
2019-02-25T01:04:20.533Z,21.23
2019-02-25T01:05:25.825Z,23.30
2019-02-25T01:06:31.062Z,21.23
2019-02-25T01:07:36.361Z,23.73
2019-02-25T01:08:41.481Z,22.57
2019-02-25T01:09:47.082Z,22.27
2019-02-25T01:10:52.335Z,21.90
2019-02-25T01:11:57.534Z,24.10
2019-02-25T01:13:02.945Z,20.77
2019-02-25T01:14:08.256Z,20.37
2019-02-25T01:15:13.710Z,22.20
2019-02-25T01:16:19.048Z,24.17
2019-02-25T01:17:25.500Z,21.03
2019-02-25T01:18:30.812Z,27.07
2019-02-25T01:19:36.127Z,24.33
2019-02-25T01:20:41.579Z,22.43
2019-02-25T01:21:46.865Z,21.57
2019-02-25T01:22:52.034Z,22.67
2019-02-25T01:23:58.677Z,26.33
2019-02-25T01:25:04.513Z,23.87
2019-02-25T01:26:09.799Z,21.33
2019-02-25T01:27:16.089Z,22.37
2019-02-25T01:28:21.325Z,20.13
2019-02-25T01:29:26.642Z,25.60
2019-02-25T01:30:32.014Z,22.90
2019-02-25T01:31:37.192Z,23.83
2019-02-25T01:32:42.458Z,27.40
2019-02-25T01:33:47.738Z,22.03
2019-02-25T01:34:53.124Z,25.77
2019-02-25T01:35:58.417Z,24.53
2019-02-25T01:37:03.761Z,25.07
2019-02-25T01:38:09.260Z,23.97
2019-02-25T01:39:14.529Z,23.17
2019-02-25T01:40:19.832Z,26.40
2019-02-25T01:41:25.211Z,23.20
2019-02-25T01:42:30.557Z,23.50
2019-02-25T01:43:35.755Z,24.60
2019-02-25T01:44:41.177Z,22.60
2019-02-25T01:45:46.505Z,23.47
2019-02-25T01:46:51.794Z,25.30
2019-02-25T01:47:57.064Z,25.23
2019-02-25T01:49:02.495Z,24.15
2019-02-25T01:50:08.503Z,24.27
2019-02-25T01:51:14.898Z,23.43
2019-02-25T01:52:20.191Z,24.10
2019-02-25T01:53:25.576Z,25.48
2019-02-25T01:54:30.827Z,28.73
2019-02-25T01:55:36.021Z,25.80
2019-02-25T01:56:41.235Z,25.13
2019-02-25T01:57:46.474Z,27.00
2019-02-25T01:58:51.773Z,26.77
2019-02-25T01:59:57.054Z,26.47
2019-02-25T02:01:02.354Z,26.97
2019-02-25T02:02:07.665Z,27.27
2019-02-25T02:03:12.972Z,25.37
2019-02-25T02:04:18.213Z,25.10
2019-02-25T02:05:24.575Z,24.77
2019-02-25T02:06:30.062Z,26.00
2019-02-25T02:07:35.256Z,25.60
2019-02-25T02:08:40.518Z,28.43
2019-02-25T02:09:45.799Z,30.33
2019-02-25T02:10:51.068Z,24.47
2019-02-25T02:11:56.296Z,25.53
2019-02-25T02:13:01.487Z,26.87
2019-02-25T02:14:06.789Z,26.70
2019-02-25T02:15:15.264Z,24.63
2019-02-25T02:16:20.483Z,25.20
2019-02-25T02:17:25.725Z,25.97
2019-02-25T02:18:30.946Z,30.30
2019-02-25T02:19:36.207Z,27.30
2019-02-25T02:20:41.419Z,29.90
2019-02-25T02:21:47.639Z,26.17
2019-02-25T02:22:52.946Z,25.00
2019-02-25T02:23:58.090Z,24.93
2019-02-25T02:25:03.404Z,25.43
2019-02-25T02:26:08.667Z,25.33
2019-02-25T02:27:13.991Z,25.43
2019-02-25T02:28:19.298Z,25.10
2019-02-25T02:29:24.485Z,25.90
2019-02-25T02:30:29.705Z,27.30
2019-02-25T02:31:35.063Z,24.70
2019-02-25T02:32:40.366Z,25.13
2019-02-25T02:33:45.654Z,25.57
2019-02-25T02:34:50.911Z,24.77
2019-02-25T02:35:56.085Z,26.63
2019-02-25T02:37:01.414Z,26.50
2019-02-25T02:38:06.724Z,27.43
2019-02-25T02:39:11.901Z,24.43
2019-02-25T02:40:17.179Z,27.23
2019-02-25T02:41:22.509Z,27.30
2019-02-25T02:42:27.818Z,27.10
2019-02-25T02:43:33.110Z,27.53
2019-02-25T02:44:38.281Z,27.10
2019-02-25T02:45:50.711Z,25.63
2019-02-25T02:47:32.659Z,26.23
2019-02-25T02:48:59.598Z,29.87
2019-02-25T02:50:05.602Z,25.57
2019-02-25T02:51:10.879Z,24.63
2019-02-25T02:52:16.168Z,27.97
2019-02-25T02:53:21.444Z,25.10
2019-02-25T02:54:26.720Z,26.47
2019-02-25T02:55:31.931Z,27.13
2019-02-25T02:56:37.219Z,25.90
2019-02-25T02:57:42.554Z,28.73
2019-02-25T02:58:47.836Z,26.27
2019-02-25T02:59:53.020Z,26.03
2019-02-25T03:00:58.143Z,25.33
2019-02-25T03:02:03.372Z,28.40
2019-02-25T03:03:08.630Z,28.43
2019-02-25T03:04:13.982Z,26.70
2019-02-25T03:05:19.504Z,28.00
2019-02-25T03:06:24.746Z,27.60
2019-02-25T03:07:30.067Z,27.43
2019-02-25T03:08:35.424Z,27.57
2019-02-25T03:09:40.627Z,26.23
2019-02-25T03:10:45.946Z,29.33
2019-02-25T03:11:51.159Z,27.13
2019-02-25T03:12:56.464Z,26.07
2019-02-25T03:14:01.655Z,28.50
2019-02-25T03:15:09.198Z,24.53
2019-02-25T03:16:14.391Z,24.83
2019-02-25T03:17:19.691Z,24.77
2019-02-25T03:18:24.962Z,27.03
2019-02-25T03:19:30.285Z,26.43
2019-02-25T03:20:35.548Z,29.60
2019-02-25T03:21:40.698Z,27.47
2019-02-25T03:22:45.978Z,27.22
2019-02-25T03:23:51.315Z,27.33
2019-02-25T03:24:56.619Z,26.87
2019-02-25T03:26:01.776Z,29.20
2019-02-25T03:27:07.050Z,29.25
2019-02-25T03:28:12.388Z,23.70
2019-02-25T03:29:17.977Z,27.15
2019-02-25T03:30:23.339Z,26.77
2019-02-25T03:31:28.633Z,27.10
2019-02-25T03:32:33.898Z,24.37
2019-02-25T03:33:39.241Z,24.03
2019-02-25T03:34:44.420Z,26.73
2019-02-25T03:35:49.682Z,32.17
2019-02-25T03:36:54.956Z,26.42
2019-02-25T03:38:00.159Z,28.52
2019-02-25T03:39:07.118Z,24.80
2019-02-25T03:40:14.852Z,24.82
2019-02-25T03:41:21.068Z,26.03
2019-02-25T03:42:26.297Z,26.33
2019-02-25T03:43:31.612Z,25.08
2019-02-25T03:44:37.011Z,28.23
2019-02-25T03:45:42.175Z,25.92
2019-02-25T03:46:48.383Z,27.07
2019-02-25T03:47:53.736Z,26.30
2019-02-25T03:48:58.951Z,28.77
2019-02-25T03:50:04.435Z,28.75
2019-02-25T03:51:09.645Z,27.73
2019-02-25T03:52:14.972Z,25.82
2019-02-25T03:53:20.319Z,31.52
2019-02-25T03:54:25.662Z,26.30
2019-02-25T03:55:30.823Z,27.25
2019-02-25T03:56:35.966Z,25.47
2019-02-25T03:57:44.825Z,27.13
2019-02-25T03:58:50.341Z,26.95
2019-02-25T04:00:01.147Z,28.60
2019-02-25T04:01:07.366Z,27.57
2019-02-25T04:02:12.759Z,27.60
2019-02-25T04:03:19.177Z,28.35
2019-02-25T04:04:24.499Z,24.18
2019-02-25T04:05:29.953Z,27.00
2019-02-25T04:06:35.290Z,27.35
2019-02-25T04:07:40.728Z,27.53
2019-02-25T04:08:45.936Z,27.33
2019-02-25T04:09:51.158Z,27.35
2019-02-25T04:10:56.546Z,26.00
2019-02-25T04:12:01.863Z,31.25
2019-02-25T04:13:07.197Z,29.37
2019-02-25T04:14:12.524Z,27.77
2019-02-25T04:15:21.140Z,25.52
2019-02-25T04:16:26.410Z,25.37
2019-02-25T04:17:31.701Z,25.27
2019-02-25T04:18:37.316Z,27.82
2019-02-25T04:19:42.673Z,25.37
2019-02-25T04:20:48.150Z,27.30
2019-02-25T04:21:53.477Z,28.30
2019-02-25T04:22:58.969Z,27.70
2019-02-25T04:24:04.230Z,26.23
2019-02-25T04:25:09.700Z,26.57
2019-02-25T04:26:20.483Z,26.65
2019-02-25T04:27:25.862Z,26.57
2019-02-25T04:28:31.203Z,29.85
2019-02-25T04:29:36.524Z,26.57
2019-02-25T04:30:41.822Z,27.45
2019-02-25T04:31:47.096Z,26.07
2019-02-25T04:32:52.356Z,27.27
2019-02-25T04:33:57.675Z,26.65
2019-02-25T04:35:03.044Z,25.40
2019-02-25T04:36:09.481Z,26.35
2019-02-25T04:37:28.583Z,25.20
2019-02-25T04:38:49.903Z,27.62
2019-02-25T04:40:30.765Z,28.83
2019-02-25T04:42:02.794Z,27.80
2019-02-25T04:43:39.000Z,28.85
2019-02-25T04:45:10.726Z,26.75
2019-02-25T04:46:24.065Z,25.17
2019-02-25T04:47:32.804Z,28.03
2019-02-25T04:48:38.097Z,28.40
2019-02-25T04:49:43.450Z,27.67
2019-02-25T04:50:48.752Z,24.25
2019-02-25T04:51:56.856Z,27.85
2019-02-25T04:53:02.257Z,25.80
2019-02-25T04:54:07.637Z,29.15
2019-02-25T04:55:13.009Z,32.20
2019-02-25T04:56:18.423Z,32.48
2019-02-25T04:57:23.834Z,28.85
2019-02-25T04:58:29.063Z,29.98
2019-02-25T04:59:40.428Z,26.93
2019-02-25T05:00:47.467Z,28.85
2019-02-25T05:01:52.829Z,26.57
2019-02-25T05:02:58.168Z,29.55
2019-02-25T05:04:03.472Z,29.45
2019-02-25T05:05:08.947Z,27.85
2019-02-25T05:06:14.392Z,28.70
2019-02-25T05:07:20.576Z,27.27
2019-02-25T05:08:26.019Z,28.92
2019-02-25T05:09:31.311Z,29.87
2019-02-25T05:10:37.518Z,26.50
2019-02-25T05:11:43.000Z,28.70
2019-02-25T05:12:54.227Z,28.70
2019-02-25T05:13:59.526Z,27.82
2019-02-25T05:15:04.876Z,27.25
2019-02-25T05:16:10.301Z,27.82
2019-02-25T05:17:15.620Z,26.62
2019-02-25T05:18:21.052Z,28.17
2019-02-25T05:19:26.373Z,26.48
2019-02-25T05:20:31.784Z,24.98
2019-02-25T05:21:37.151Z,25.30
2019-02-25T05:22:42.458Z,27.10
2019-02-25T05:23:57.076Z,26.65
2019-02-25T05:25:26.369Z,27.90
2019-02-25T05:26:53.406Z,28.10
2019-02-25T05:28:04.969Z,28.57
2019-02-25T05:29:28.406Z,26.77
2019-02-25T05:30:37.035Z,27.52
2019-02-25T05:31:48.209Z,30.60
2019-02-25T05:32:55.256Z,28.62
2019-02-25T05:34:00.661Z,27.62
2019-02-25T05:35:08.636Z,28.20
2019-02-25T05:36:18.779Z,26.27
2019-02-25T05:37:24.249Z,29.67
2019-02-25T05:38:32.857Z,23.77
2019-02-25T05:39:43.685Z,28.30
2019-02-25T05:40:51.036Z,26.73
2019-02-25T05:41:56.433Z,24.82
2019-02-25T05:43:01.653Z,26.70
2019-02-25T05:44:08.529Z,24.92
2019-02-25T05:45:14.068Z,28.47
2019-02-25T05:46:19.287Z,26.82
2019-02-25T05:47:24.603Z,27.95
2019-02-25T05:48:29.862Z,32.25
2019-02-25T05:49:35.148Z,23.22
2019-02-25T05:50:40.436Z,29.48
2019-02-25T05:51:45.809Z,29.92
2019-02-25T05:52:51.156Z,25.48
2019-02-25T05:53:58.552Z,28.55
2019-02-25T05:55:06.302Z,26.55
2019-02-25T05:56:14.806Z,25.00
2019-02-25T05:57:22.868Z,24.82
2019-02-25T05:58:32.170Z,27.65
2019-02-25T05:59:37.621Z,27.65
2019-02-25T06:00:44.406Z,25.57
2019-02-25T06:01:53.890Z,26.45
2019-02-25T06:02:59.431Z,27.85
2019-02-25T06:04:06.551Z,29.70
2019-02-25T06:05:17.023Z,28.90
2019-02-25T06:06:22.466Z,25.77
2019-02-25T06:07:27.809Z,27.87
2019-02-25T06:08:33.196Z,25.65
2019-02-25T06:09:38.601Z,27.93
2019-02-25T06:10:43.958Z,28.07
2019-02-25T06:11:49.365Z,28.52
2019-02-25T06:12:54.767Z,28.98
2019-02-25T06:14:00.200Z,31.57
2019-02-25T06:15:05.717Z,28.23
2019-02-25T06:16:11.621Z,27.90
2019-02-25T06:17:17.614Z,26.10
2019-02-25T06:18:24.330Z,31.12
2019-02-25T06:19:29.733Z,26.48
2019-02-25T06:20:35.199Z,24.30
2019-02-25T06:21:40.538Z,29.05
2019-02-25T06:22:46.036Z,30.15
2019-02-25T06:23:53.811Z,29.00
2019-02-25T06:24:59.141Z,31.57
2019-02-25T06:26:04.473Z,25.15
2019-02-25T06:27:09.724Z,28.70
2019-02-25T06:28:15.035Z,27.50
2019-02-25T06:29:20.449Z,26.25
2019-02-25T06:30:25.770Z,28.67
2019-02-25T06:31:31.237Z,27.02
2019-02-25T06:32:36.608Z,26.80
2019-02-25T06:33:41.926Z,31.55
2019-02-25T06:34:47.360Z,25.17
2019-02-25T06:35:56.835Z,27.22
2019-02-25T06:37:02.501Z,28.07
2019-02-25T06:38:08.016Z,25.48
2019-02-25T06:39:13.373Z,27.80
2019-02-25T06:40:18.725Z,26.73
2019-02-25T06:41:28.612Z,27.93
2019-02-25T06:42:33.870Z,26.65
2019-02-25T06:43:39.054Z,26.65
2019-02-25T06:44:44.310Z,24.27
2019-02-25T06:45:49.544Z,31.33
2019-02-25T06:46:54.848Z,28.25
2019-02-25T06:48:00.091Z,26.45
2019-02-25T06:49:05.404Z,28.50
2019-02-25T06:50:10.663Z,26.48
2019-02-25T06:51:15.993Z,27.73
2019-02-25T06:52:21.211Z,28.00
2019-02-25T06:53:27.550Z,26.97
2019-02-25T06:54:32.768Z,27.75
2019-02-25T06:55:37.987Z,26.65
2019-02-25T06:56:43.270Z,27.62
2019-02-25T06:57:48.506Z,26.80
2019-02-25T06:58:53.747Z,32.95
2019-02-25T06:59:59.871Z,25.35
2019-02-25T07:01:05.203Z,27.22
2019-02-25T07:02:10.524Z,27.50
2019-02-25T07:03:15.890Z,27.82
2019-02-25T07:04:46.048Z,27.45
2019-02-25T07:05:59.119Z,28.17
2019-02-25T07:07:17.410Z,27.55
2019-02-25T07:08:44.443Z,24.43
2019-02-25T07:10:08.641Z,26.73
2019-02-25T07:11:35.960Z,24.95
2019-02-25T07:12:57.304Z,25.30
2019-02-25T07:14:41.798Z,27.60
2019-02-25T07:15:52.272Z,24.37
2019-02-25T07:17:16.532Z,22.90
2019-02-25T07:18:31.921Z,26.80
2019-02-25T07:19:56.144Z,29.00
2019-02-25T07:21:19.221Z,26.62
2019-02-25T07:22:34.126Z,24.93
2019-02-25T07:24:10.739Z,26.50
2019-02-25T07:25:46.975Z,24.47
2019-02-25T07:26:59.018Z,25.03
2019-02-25T07:28:32.201Z,24.23
2019-02-25T07:30:11.806Z,23.57
2019-02-25T07:31:34.798Z,26.85
2019-02-25T07:33:11.448Z,23.97
2019-02-25T07:34:26.623Z,25.30
2019-02-25T07:35:57.167Z,28.33
2019-02-25T07:37:17.466Z,25.63
2019-02-25T07:38:41.712Z,26.17
2019-02-25T07:40:11.907Z,25.77
2019-02-25T07:41:30.859Z,22.03
2019-02-25T07:42:53.694Z,28.90
2019-02-25T07:44:21.058Z,30.73
2019-02-25T07:45:51.402Z,31.97
2019-02-25T07:47:08.779Z,30.30
2019-02-25T07:48:33.074Z,26.57
2019-02-25T07:49:48.800Z,34.37
2019-02-25T07:51:03.447Z,31.03
2019-02-25T07:52:26.528Z,29.53
2019-02-25T07:53:43.347Z,26.27
2019-02-25T07:55:03.749Z,23.73
2019-02-25T07:56:26.700Z,26.90
2019-02-25T07:57:53.390Z,26.57
2019-02-25T07:59:04.601Z,25.83
2019-02-25T08:00:20.807Z,24.53
2019-02-25T08:01:51.475Z,27.13
2019-02-25T08:03:14.662Z,24.43
2019-02-25T08:04:51.471Z,24.40
2019-02-25T08:06:16.889Z,22.20
2019-02-25T08:07:41.477Z,25.23
2019-02-25T08:09:09.023Z,21.10
2019-02-25T08:10:32.754Z,20.50
2019-02-25T08:12:00.027Z,23.93
2019-02-25T08:13:19.716Z,22.53
2019-02-25T08:14:34.075Z,21.13
2019-02-25T08:15:52.529Z,21.50
2019-02-25T08:17:32.224Z,21.47
2019-02-25T08:19:05.933Z,22.57
2019-02-25T08:20:30.394Z,22.00
2019-02-25T08:21:52.883Z,21.30
2019-02-25T08:23:20.333Z,19.27
2019-02-25T08:24:47.424Z,22.53
2019-02-25T08:26:20.723Z,23.10
2019-02-25T08:27:35.689Z,24.10
2019-02-25T08:29:00.216Z,20.73
2019-02-25T08:30:34.749Z,22.97
2019-02-25T08:31:57.753Z,18.43
2019-02-25T08:33:13.215Z,18.40
2019-02-25T08:34:46.585Z,22.50
2019-02-25T08:37:02.182Z,19.60
2019-02-25T08:38:29.491Z,19.10
2019-02-25T08:39:56.361Z,20.63
2019-02-25T08:41:24.386Z,22.07
2019-02-25T08:42:49.588Z,19.83
2019-02-25T08:44:22.772Z,19.30
2019-02-25T08:45:39.970Z,20.60
2019-02-25T08:47:00.091Z,19.20
2019-02-25T08:48:30.260Z,18.37
2019-02-25T08:49:55.086Z,21.87
2019-02-25T08:51:00.498Z,19.10
2019-02-25T08:52:05.824Z,20.17
2019-02-25T08:53:11.330Z,17.60
2019-02-25T08:54:16.669Z,18.87
2019-02-25T08:55:22.163Z,19.73
2019-02-25T08:56:27.508Z,16.87
2019-02-25T08:57:32.831Z,18.23
2019-02-25T08:58:38.421Z,18.30
2019-02-25T08:59:47.235Z,19.53
2019-02-25T09:00:55.529Z,19.60
2019-02-25T09:02:00.779Z,16.80
2019-02-25T09:03:06.190Z,19.73
2019-02-25T09:04:11.369Z,17.57
2019-02-25T09:05:16.733Z,18.13
2019-02-25T09:06:22.035Z,20.30
2019-02-25T09:07:27.223Z,21.60
2019-02-25T09:08:32.426Z,19.70
2019-02-25T09:09:37.669Z,18.77
2019-02-25T09:10:42.931Z,16.93
2019-02-25T09:11:48.136Z,20.53
2019-02-25T09:12:53.411Z,19.90
2019-02-25T09:13:58.574Z,21.30
2019-02-25T09:15:03.840Z,16.03
2019-02-25T09:16:09.363Z,18.30
2019-02-25T09:17:16.064Z,18.87
2019-02-25T09:18:21.476Z,16.67
2019-02-25T09:19:26.797Z,22.27
2019-02-25T09:20:32.071Z,19.10
2019-02-25T09:21:37.430Z,21.57
2019-02-25T09:22:42.703Z,17.87
2019-02-25T09:23:47.913Z,19.50
2019-02-25T09:24:53.179Z,16.10
2019-02-25T09:25:58.524Z,21.33
2019-02-25T09:27:03.787Z,22.13
2019-02-25T09:28:09.062Z,21.03
2019-02-25T09:29:14.260Z,21.87
2019-02-25T09:30:19.469Z,20.53
2019-02-25T09:31:24.856Z,18.97
2019-02-25T09:32:30.231Z,22.27
2019-02-25T09:33:35.567Z,20.63
2019-02-25T09:34:40.639Z,22.13
2019-02-25T09:35:45.898Z,22.93
2019-02-25T09:36:51.138Z,24.63
2019-02-25T09:37:56.548Z,27.23
2019-02-25T09:39:01.948Z,20.57
2019-02-25T09:40:11.247Z,22.13
2019-02-25T09:41:16.647Z,20.43
2019-02-25T09:42:21.849Z,19.53
2019-02-25T09:43:27.105Z,19.07
2019-02-25T09:44:32.310Z,19.07
2019-02-25T09:45:37.543Z,19.97
2019-02-25T09:46:42.832Z,19.57
2019-02-25T09:47:48.015Z,18.83
2019-02-25T09:48:53.237Z,18.60
2019-02-25T09:49:58.509Z,18.83
2019-02-25T09:51:03.809Z,20.07
2019-02-25T09:52:10.333Z,19.20
2019-02-25T09:53:15.482Z,19.10
2019-02-25T09:54:20.772Z,15.40
2019-02-25T09:55:26.061Z,19.03
2019-02-25T09:56:31.275Z,15.10
2019-02-25T09:57:36.530Z,18.23
2019-02-25T09:58:41.653Z,16.00
2019-02-25T09:59:47.132Z,15.93
2019-02-25T10:00:52.340Z,18.00
2019-02-25T10:01:57.621Z,19.67
2019-02-25T10:03:02.790Z,15.80
2019-02-25T10:04:08.818Z,20.87
2019-02-25T10:05:14.228Z,15.53
2019-02-25T10:06:19.391Z,17.27
2019-02-25T10:07:24.621Z,16.27
2019-02-25T10:08:29.943Z,17.00
2019-02-25T10:09:35.142Z,18.33
2019-02-25T10:10:40.344Z,17.93
2019-02-25T10:11:45.643Z,18.13
2019-02-25T10:12:50.940Z,19.10
2019-02-25T10:13:56.112Z,17.77
2019-02-25T10:15:01.460Z,18.43
2019-02-25T10:16:06.804Z,17.27
2019-02-25T10:17:12.045Z,17.93
2019-02-25T10:18:17.316Z,18.90
2019-02-25T10:19:22.538Z,17.03
2019-02-25T10:20:27.744Z,20.07
2019-02-25T10:21:32.980Z,20.33
2019-02-25T10:22:39.349Z,19.83
2019-02-25T10:23:44.539Z,16.23
2019-02-25T10:24:49.711Z,16.37
2019-02-25T10:25:54.888Z,20.97
2019-02-25T10:27:00.038Z,16.90
2019-02-25T10:28:05.355Z,20.80
2019-02-25T10:29:10.571Z,17.53
2019-02-25T10:30:15.862Z,21.70
2019-02-25T10:31:21.093Z,18.03
2019-02-25T10:32:28.058Z,22.87
2019-02-25T10:33:33.207Z,19.97
2019-02-25T10:34:38.516Z,19.90
2019-02-25T10:35:43.767Z,16.57
2019-02-25T10:36:50.286Z,16.27
2019-02-25T10:37:55.973Z,17.27
2019-02-25T10:39:01.227Z,19.60
2019-02-25T10:40:09.364Z,17.07
2019-02-25T10:41:16.546Z,18.93
2019-02-25T10:42:21.513Z,20.57
2019-02-25T10:43:28.073Z,16.70
2019-02-25T10:44:34.121Z,15.93
2019-02-25T10:45:41.227Z,15.67
2019-02-25T10:46:49.105Z,14.87
2019-02-25T10:47:58.452Z,16.67
2019-02-25T10:49:10.929Z,18.57
2019-02-25T10:50:08.622Z,15.30
2019-02-25T10:51:13.950Z,18.03
2019-02-25T10:52:19.207Z,16.80
2019-02-25T10:53:24.543Z,16.77
2019-02-25T10:54:29.807Z,16.23
2019-02-25T10:55:39.964Z,15.30
2019-02-25T10:56:53.285Z,16.90
2019-02-25T10:57:59.804Z,16.40
2019-02-25T10:59:08.116Z,17.33
2019-02-25T11:00:14.901Z,14.77
2019-02-25T11:01:22.336Z,18.87
2019-02-25T11:02:27.163Z,15.37
2019-02-25T11:03:32.371Z,16.90
2019-02-25T11:04:37.535Z,14.90
2019-02-25T11:05:42.779Z,15.37
2019-02-25T11:06:47.943Z,14.63
2019-02-25T11:07:53.133Z,15.53
2019-02-25T11:09:06.869Z,18.67
2019-02-25T11:10:29.248Z,17.77
2019-02-25T11:11:37.061Z,16.57
2019-02-25T11:12:42.253Z,14.80
2019-02-25T11:13:47.524Z,17.87
2019-02-25T11:14:52.842Z,20.27
2019-02-25T11:15:58.089Z,16.93
2019-02-25T11:17:03.347Z,16.20
2019-02-25T11:18:09.107Z,17.10
2019-02-25T11:19:14.277Z,18.93
2019-02-25T11:20:19.517Z,17.73
2019-02-25T11:21:24.816Z,18.30
2019-02-25T11:22:30.088Z,18.93
2019-02-25T11:23:35.315Z,17.03
2019-02-25T11:24:40.561Z,17.97
2019-02-25T11:25:45.695Z,16.67
2019-02-25T11:26:50.800Z,16.73
2019-02-25T11:27:55.974Z,19.70
2019-02-25T11:29:01.253Z,20.67
2019-02-25T11:30:09.772Z,16.10
2019-02-25T11:31:17.154Z,16.60
2019-02-25T11:32:23.684Z,17.40
2019-02-25T11:33:30.247Z,16.60
2019-02-25T11:34:37.571Z,16.93
2019-02-25T11:35:43.323Z,18.13
2019-02-25T11:36:50.857Z,17.03
2019-02-25T11:37:57.059Z,15.13
2019-02-25T11:39:04.489Z,15.83
2019-02-25T11:40:10.993Z,15.13
2019-02-25T11:41:16.322Z,16.63
2019-02-25T11:42:21.489Z,17.73
2019-02-25T11:43:26.784Z,15.67
2019-02-25T11:44:32.055Z,15.87
2019-02-25T11:45:38.238Z,17.13
2019-02-25T11:46:43.421Z,15.43
2019-02-25T11:47:49.692Z,17.73
2019-02-25T11:48:54.863Z,15.57
2019-02-25T11:50:00.321Z,16.17
2019-02-25T11:51:05.510Z,15.13
2019-02-25T11:52:10.684Z,16.23
2019-02-25T11:53:16.176Z,14.07
2019-02-25T11:54:21.387Z,14.03
2019-02-25T11:55:26.646Z,14.60
2019-02-25T11:56:31.915Z,16.23
2019-02-25T11:57:37.203Z,16.03
2019-02-25T11:58:42.322Z,14.83
2019-02-25T11:59:47.502Z,14.83
2019-02-25T12:00:52.721Z,15.87
2019-02-25T12:01:57.936Z,13.20
2019-02-25T12:03:03.199Z,14.50
2019-02-25T12:04:08.625Z,14.43
2019-02-25T12:05:14.833Z,16.83
2019-02-25T12:06:19.984Z,16.80
2019-02-25T12:07:25.245Z,14.53
2019-02-25T12:08:30.546Z,16.47
2019-02-25T12:09:35.832Z,16.70
2019-02-25T12:10:41.002Z,13.07
2019-02-25T12:11:46.351Z,14.00
2019-02-25T12:12:52.032Z,14.00
2019-02-25T12:13:57.265Z,13.70
2019-02-25T12:15:03.715Z,15.23
2019-02-25T12:16:08.986Z,15.00
2019-02-25T12:17:14.141Z,15.77
2019-02-25T12:18:19.407Z,13.83
2019-02-25T12:19:24.638Z,14.90
2019-02-25T12:20:29.868Z,17.63
2019-02-25T12:21:35.035Z,15.43
2019-02-25T12:22:40.118Z,14.17
2019-02-25T12:23:45.382Z,15.57
2019-02-25T12:24:50.688Z,15.40
2019-02-25T12:25:55.913Z,16.53
2019-02-25T12:27:01.189Z,17.23
2019-02-25T12:28:06.436Z,15.03
2019-02-25T12:29:11.706Z,19.27
2019-02-25T12:30:18.261Z,18.20
2019-02-25T12:31:23.417Z,15.90
2019-02-25T12:32:28.683Z,16.63
2019-02-25T12:33:33.939Z,13.80
2019-02-25T12:34:39.105Z,15.73
2019-02-25T12:35:44.309Z,15.03
2019-02-25T12:36:49.474Z,12.30
2019-02-25T12:37:54.653Z,13.90
2019-02-25T12:38:59.897Z,15.33
2019-02-25T12:40:07.302Z,12.73
2019-02-25T12:41:12.492Z,12.73
2019-02-25T12:42:17.645Z,11.43
2019-02-25T12:43:22.911Z,12.00
2019-02-25T12:44:28.166Z,12.93
2019-02-25T12:45:33.418Z,13.97
2019-02-25T12:46:38.640Z,12.63
2019-02-25T12:47:43.839Z,13.60
2019-02-25T12:48:49.030Z,12.03
2019-02-25T12:49:54.173Z,12.83
2019-02-25T12:50:59.447Z,11.07
2019-02-25T12:52:04.676Z,9.83
2019-02-25T12:53:10.067Z,12.90
2019-02-25T12:54:15.310Z,11.23
2019-02-25T12:55:21.660Z,10.93
2019-02-25T12:56:26.795Z,13.67
2019-02-25T12:57:31.950Z,9.83
2019-02-25T12:58:37.237Z,11.43
2019-02-25T12:59:42.533Z,12.03
2019-02-25T13:00:47.764Z,10.60
2019-02-25T13:01:52.905Z,12.23
2019-02-25T13:02:58.149Z,12.77
2019-02-25T13:04:03.496Z,14.20
2019-02-25T13:05:10.268Z,14.27
2019-02-25T13:06:15.407Z,12.73
2019-02-25T13:07:20.592Z,15.67
2019-02-25T13:08:25.761Z,15.70
2019-02-25T13:09:31.002Z,14.40
2019-02-25T13:10:36.164Z,13.87
2019-02-25T13:11:41.335Z,13.20
2019-02-25T13:12:46.505Z,12.83
2019-02-25T13:13:51.730Z,13.37
2019-02-25T13:14:56.988Z,13.13
2019-02-25T13:16:02.175Z,11.93
2019-02-25T13:17:07.341Z,12.07
2019-02-25T13:18:12.592Z,12.80
2019-02-25T13:19:17.877Z,13.90
2019-02-25T13:20:23.057Z,11.00
2019-02-25T13:21:28.230Z,13.63
2019-02-25T13:22:33.386Z,15.07
2019-02-25T13:23:38.744Z,13.57
2019-02-25T13:24:43.906Z,11.57
2019-02-25T13:25:49.148Z,12.53
2019-02-25T13:26:54.295Z,11.80
2019-02-25T13:28:02.102Z,11.77
2019-02-25T13:29:07.527Z,13.00
2019-02-25T13:30:14.441Z,10.67
2019-02-25T13:31:20.646Z,11.13
2019-02-25T13:32:25.819Z,14.43
2019-02-25T13:33:31.055Z,13.23
2019-02-25T13:34:36.430Z,10.80
2019-02-25T13:35:41.804Z,11.57
2019-02-25T13:36:47.011Z,12.07
2019-02-25T13:37:52.272Z,11.20
2019-02-25T13:38:57.506Z,10.07
2019-02-25T13:40:02.769Z,10.37
2019-02-25T13:41:07.988Z,10.07
2019-02-25T13:42:13.261Z,11.60
2019-02-25T13:43:18.486Z,10.97
2019-02-25T13:44:24.678Z,10.53
2019-02-25T13:45:29.798Z,11.77
2019-02-25T13:46:35.024Z,11.57
2019-02-25T13:47:40.186Z,10.43
2019-02-25T13:48:45.406Z,9.60
2019-02-25T13:49:50.699Z,11.20
2019-02-25T13:50:55.893Z,9.40
2019-02-25T13:52:01.142Z,10.67
2019-02-25T13:53:06.557Z,9.93
2019-02-25T13:54:11.860Z,10.10
2019-02-25T13:55:17.120Z,11.70
2019-02-25T13:56:22.363Z,10.27
2019-02-25T13:57:27.594Z,10.07
2019-02-25T13:58:32.870Z,12.40
2019-02-25T13:59:38.536Z,9.97
2019-02-25T14:00:43.779Z,9.23
2019-02-25T14:01:48.922Z,11.07
2019-02-25T14:02:54.151Z,11.50
2019-02-25T14:03:59.388Z,9.87
2019-02-25T14:05:06.136Z,10.07
2019-02-25T14:06:11.582Z,10.37
2019-02-25T14:07:16.817Z,9.67
2019-02-25T14:08:21.965Z,10.33
2019-02-25T14:09:27.145Z,9.27
2019-02-25T14:10:32.413Z,9.90
2019-02-25T14:11:38.056Z,11.73
2019-02-25T14:12:43.198Z,13.13
2019-02-25T14:13:48.410Z,9.93
2019-02-25T14:14:53.636Z,9.60
2019-02-25T14:15:58.943Z,10.30
2019-02-25T14:17:09.282Z,11.03
2019-02-25T14:18:14.529Z,12.53
2019-02-25T14:19:19.960Z,12.40
2019-02-25T14:20:25.239Z,11.37
2019-02-25T14:21:31.703Z,11.60
2019-02-25T14:22:37.080Z,10.50
2019-02-25T14:23:42.215Z,12.73
2019-02-25T14:24:47.376Z,12.43
2019-02-25T14:25:52.629Z,12.83
2019-02-25T14:26:57.920Z,13.67
2019-02-25T14:28:05.739Z,12.20
2019-02-25T14:29:09.956Z,14.00
2019-02-25T14:30:17.663Z,10.80
2019-02-25T14:31:22.950Z,12.20
2019-02-25T14:32:30.038Z,10.63
2019-02-25T14:33:35.828Z,12.13
2019-02-25T14:34:41.260Z,12.47
2019-02-25T14:35:46.541Z,12.57
2019-02-25T14:36:52.576Z,12.03